sensor_id;sensor_type;location;lat;lon;timestamp;P1;durP1;ratioP1;P2;durP2;ratioP2
17494;SDS011;8864;51.970;4.614;2024-03-07T00:00:23;9.02;;;5.32;;
17494;SDS011;8864;51.970;4.614;2024-03-07T00:02:51;12.70;;;5.78;;
17494;SDS011;8864;51.970;4.614;2024-03-07T00:05:21;9.85;;;5.75;;
17494;SDS011;8864;51.970;4.614;2024-03-07T00:07:49;11.55;;;6.05;;
17494;SDS011;8864;51.970;4.614;2024-03-07T00:10:16;9.88;;;6.18;;
17494;SDS011;8864;51.970;4.614;2024-03-07T00:12:44;10.95;;;6.18;;
17494;SDS011;8864;51.970;4.614;2024-03-07T00:15:13;11.65;;;5.80;;
17494;SDS011;8864;51.970;4.614;2024-03-07T00:17:40;10.73;;;6.28;;
17494;SDS011;8864;51.970;4.614;2024-03-07T00:20:08;17.27;;;6.88;;
17494;SDS011;8864;51.970;4.614;2024-03-07T00:22:41;11.48;;;5.88;;
17494;SDS011;8864;51.970;4.614;2024-03-07T00:25:08;10.20;;;5.68;;
17494;SDS011;8864;51.970;4.614;2024-03-07T00:27:38;10.52;;;6.28;;
17494;SDS011;8864;51.970;4.614;2024-03-07T00:30:06;10.98;;;6.55;;
17494;SDS011;8864;51.970;4.614;2024-03-07T00:32:35;11.18;;;6.43;;
17494;SDS011;8864;51.970;4.614;2024-03-07T00:35:04;11.52;;;6.10;;
17494;SDS011;8864;51.970;4.614;2024-03-07T00:37:33;13.60;;;6.47;;
17494;SDS011;8864;51.970;4.614;2024-03-07T00:40:02;11.32;;;6.22;;
17494;SDS011;8864;51.970;4.614;2024-03-07T00:42:29;16.75;;;6.80;;
17494;SDS011;8864;51.970;4.614;2024-03-07T00:44:56;11.15;;;6.55;;
17494;SDS011;8864;51.970;4.614;2024-03-07T00:47:23;10.82;;;6.30;;
17494;SDS011;8864;51.970;4.614;2024-03-07T00:49:50;10.70;;;6.13;;
17494;SDS011;8864;51.970;4.614;2024-03-07T00:52:17;12.15;;;6.55;;
17494;SDS011;8864;51.970;4.614;2024-03-07T00:54:44;11.95;;;6.85;;
17494;SDS011;8864;51.970;4.614;2024-03-07T00:57:13;11.40;;;6.88;;
17494;SDS011;8864;51.970;4.614;2024-03-07T00:59:41;12.98;;;6.97;;
17494;SDS011;8864;51.970;4.614;2024-03-07T01:02:07;11.68;;;6.72;;
17494;SDS011;8864;51.970;4.614;2024-03-07T01:04:35;11.07;;;6.35;;
17494;SDS011;8864;51.970;4.614;2024-03-07T01:07:02;11.15;;;6.72;;
17494;SDS011;8864;51.970;4.614;2024-03-07T01:09:30;11.60;;;6.45;;
17494;SDS011;8864;51.970;4.614;2024-03-07T01:11:57;15.70;;;7.32;;
17494;SDS011;8864;51.970;4.614;2024-03-07T01:14:26;12.75;;;6.63;;
17494;SDS011;8864;51.970;4.614;2024-03-07T01:16:53;12.77;;;7.18;;
17494;SDS011;8864;51.970;4.614;2024-03-07T01:19:21;14.20;;;7.07;;
17494;SDS011;8864;51.970;4.614;2024-03-07T01:21:48;14.43;;;6.60;;
17494;SDS011;8864;51.970;4.614;2024-03-07T01:24:17;12.25;;;7.22;;
17494;SDS011;8864;51.970;4.614;2024-03-07T01:26:45;12.75;;;6.88;;
17494;SDS011;8864;51.970;4.614;2024-03-07T01:29:13;13.82;;;7.65;;
17494;SDS011;8864;51.970;4.614;2024-03-07T01:31:42;12.50;;;7.10;;
17494;SDS011;8864;51.970;4.614;2024-03-07T01:34:09;13.32;;;7.18;;
17494;SDS011;8864;51.970;4.614;2024-03-07T01:36:36;13.40;;;7.22;;
17494;SDS011;8864;51.970;4.614;2024-03-07T01:39:03;11.63;;;6.75;;
17494;SDS011;8864;51.970;4.614;2024-03-07T01:41:30;12.05;;;6.65;;
17494;SDS011;8864;51.970;4.614;2024-03-07T01:43:59;12.63;;;6.63;;
17494;SDS011;8864;51.970;4.614;2024-03-07T01:46:27;13.50;;;6.88;;
17494;SDS011;8864;51.970;4.614;2024-03-07T01:48:57;13.35;;;7.35;;
17494;SDS011;8864;51.970;4.614;2024-03-07T01:51:24;11.93;;;7.22;;
17494;SDS011;8864;51.970;4.614;2024-03-07T01:53:52;15.38;;;6.93;;
17494;SDS011;8864;51.970;4.614;2024-03-07T01:56:20;13.43;;;7.47;;
17494;SDS011;8864;51.970;4.614;2024-03-07T01:58:47;13.88;;;7.30;;
17494;SDS011;8864;51.970;4.614;2024-03-07T02:01:19;15.02;;;7.22;;
17494;SDS011;8864;51.970;4.614;2024-03-07T02:03:46;16.90;;;7.65;;
17494;SDS011;8864;51.970;4.614;2024-03-07T02:06:14;11.68;;;6.75;;
17494;SDS011;8864;51.970;4.614;2024-03-07T02:08:42;13.18;;;7.78;;
17494;SDS011;8864;51.970;4.614;2024-03-07T02:11:08;13.05;;;7.07;;
17494;SDS011;8864;51.970;4.614;2024-03-07T02:13:36;13.80;;;7.65;;
17494;SDS011;8864;51.970;4.614;2024-03-07T02:16:03;11.25;;;7.22;;
17494;SDS011;8864;51.970;4.614;2024-03-07T02:18:30;13.73;;;7.20;;
17494;SDS011;8864;51.970;4.614;2024-03-07T02:20:59;11.90;;;6.90;;
17494;SDS011;8864;51.970;4.614;2024-03-07T02:23:26;13.45;;;7.72;;
17494;SDS011;8864;51.970;4.614;2024-03-07T02:25:53;12.15;;;7.30;;
17494;SDS011;8864;51.970;4.614;2024-03-07T02:28:20;17.80;;;7.95;;
17494;SDS011;8864;51.970;4.614;2024-03-07T02:30:47;12.70;;;7.28;;
17494;SDS011;8864;51.970;4.614;2024-03-07T02:33:14;12.18;;;7.50;;
17494;SDS011;8864;51.970;4.614;2024-03-07T02:35:41;14.10;;;7.55;;
17494;SDS011;8864;51.970;4.614;2024-03-07T02:38:10;14.55;;;7.22;;
17494;SDS011;8864;51.970;4.614;2024-03-07T02:40:37;12.48;;;7.20;;
17494;SDS011;8864;51.970;4.614;2024-03-07T02:43:04;12.02;;;7.22;;
17494;SDS011;8864;51.970;4.614;2024-03-07T02:45:32;14.35;;;7.25;;
17494;SDS011;8864;51.970;4.614;2024-03-07T02:47:59;12.02;;;7.35;;
17494;SDS011;8864;51.970;4.614;2024-03-07T02:50:26;13.18;;;7.13;;
17494;SDS011;8864;51.970;4.614;2024-03-07T02:52:53;11.82;;;7.10;;
17494;SDS011;8864;51.970;4.614;2024-03-07T02:55:22;14.05;;;7.57;;
17494;SDS011;8864;51.970;4.614;2024-03-07T02:57:49;13.73;;;7.57;;
17494;SDS011;8864;51.970;4.614;2024-03-07T03:00:17;15.35;;;7.25;;
17494;SDS011;8864;51.970;4.614;2024-03-07T03:02:51;12.50;;;7.15;;
17494;SDS011;8864;51.970;4.614;2024-03-07T03:05:19;14.05;;;7.10;;
17494;SDS011;8864;51.970;4.614;2024-03-07T03:07:46;14.15;;;6.85;;
17494;SDS011;8864;51.970;4.614;2024-03-07T03:10:19;13.98;;;7.15;;
17494;SDS011;8864;51.970;4.614;2024-03-07T03:12:51;12.20;;;7.25;;
17494;SDS011;8864;51.970;4.614;2024-03-07T03:15:20;13.65;;;7.32;;
17494;SDS011;8864;51.970;4.614;2024-03-07T03:17:47;11.93;;;6.57;;
17494;SDS011;8864;51.970;4.614;2024-03-07T03:20:15;13.15;;;7.38;;
17494;SDS011;8864;51.970;4.614;2024-03-07T03:22:50;11.27;;;6.90;;
17494;SDS011;8864;51.970;4.614;2024-03-07T03:25:18;10.77;;;6.45;;
17494;SDS011;8864;51.970;4.614;2024-03-07T03:27:49;12.13;;;6.80;;
17494;SDS011;8864;51.970;4.614;2024-03-07T03:30:17;11.98;;;7.00;;
17494;SDS011;8864;51.970;4.614;2024-03-07T03:32:46;12.82;;;7.20;;
17494;SDS011;8864;51.970;4.614;2024-03-07T03:35:14;10.90;;;6.68;;
17494;SDS011;8864;51.970;4.614;2024-03-07T03:37:42;13.27;;;6.97;;
17494;SDS011;8864;51.970;4.614;2024-03-07T03:40:09;11.30;;;6.45;;
17494;SDS011;8864;51.970;4.614;2024-03-07T03:42:38;12.23;;;7.38;;
17494;SDS011;8864;51.970;4.614;2024-03-07T03:45:08;14.63;;;7.35;;
17494;SDS011;8864;51.970;4.614;2024-03-07T03:47:39;11.63;;;6.80;;
17494;SDS011;8864;51.970;4.614;2024-03-07T03:50:08;14.05;;;8.00;;
17494;SDS011;8864;51.970;4.614;2024-03-07T03:52:36;14.15;;;6.90;;
17494;SDS011;8864;51.970;4.614;2024-03-07T03:55:04;13.63;;;7.35;;
17494;SDS011;8864;51.970;4.614;2024-03-07T03:57:32;13.63;;;7.25;;
17494;SDS011;8864;51.970;4.614;2024-03-07T03:59:59;15.50;;;7.72;;
17494;SDS011;8864;51.970;4.614;2024-03-07T04:02:34;16.35;;;7.82;;
17494;SDS011;8864;51.970;4.614;2024-03-07T04:05:02;14.32;;;8.38;;
17494;SDS011;8864;51.970;4.614;2024-03-07T04:07:30;14.68;;;7.70;;
17494;SDS011;8864;51.970;4.614;2024-03-07T04:09:57;13.32;;;7.32;;
17494;SDS011;8864;51.970;4.614;2024-03-07T04:12:24;13.27;;;7.93;;
17494;SDS011;8864;51.970;4.614;2024-03-07T04:14:52;14.60;;;8.23;;
17494;SDS011;8864;51.970;4.614;2024-03-07T04:17:20;15.30;;;8.70;;
17494;SDS011;8864;51.970;4.614;2024-03-07T04:19:49;16.48;;;8.63;;
17494;SDS011;8864;51.970;4.614;2024-03-07T04:22:16;16.77;;;8.77;;
17494;SDS011;8864;51.970;4.614;2024-03-07T04:24:44;16.98;;;8.88;;
17494;SDS011;8864;51.970;4.614;2024-03-07T04:27:12;17.95;;;8.45;;
17494;SDS011;8864;51.970;4.614;2024-03-07T04:29:39;17.73;;;9.25;;
17494;SDS011;8864;51.970;4.614;2024-03-07T04:32:06;16.77;;;8.73;;
17494;SDS011;8864;51.970;4.614;2024-03-07T04:34:34;13.90;;;8.32;;
17494;SDS011;8864;51.970;4.614;2024-03-07T04:37:03;17.20;;;8.10;;
17494;SDS011;8864;51.970;4.614;2024-03-07T04:39:30;16.55;;;8.52;;
17494;SDS011;8864;51.970;4.614;2024-03-07T04:41:58;14.90;;;8.13;;
17494;SDS011;8864;51.970;4.614;2024-03-07T04:44:26;14.68;;;8.00;;
17494;SDS011;8864;51.970;4.614;2024-03-07T04:46:53;17.65;;;8.82;;
17494;SDS011;8864;51.970;4.614;2024-03-07T04:49:22;16.00;;;8.98;;
17494;SDS011;8864;51.970;4.614;2024-03-07T04:51:49;16.40;;;8.93;;
17494;SDS011;8864;51.970;4.614;2024-03-07T04:54:18;19.40;;;9.23;;
17494;SDS011;8864;51.970;4.614;2024-03-07T04:56:46;19.08;;;9.35;;
17494;SDS011;8864;51.970;4.614;2024-03-07T04:59:13;18.95;;;9.77;;
17494;SDS011;8864;51.970;4.614;2024-03-07T05:01:41;16.48;;;8.90;;
17494;SDS011;8864;51.970;4.614;2024-03-07T05:04:08;17.48;;;9.48;;
17494;SDS011;8864;51.970;4.614;2024-03-07T05:06:37;15.43;;;8.45;;
17494;SDS011;8864;51.970;4.614;2024-03-07T05:09:05;15.82;;;8.95;;
17494;SDS011;8864;51.970;4.614;2024-03-07T05:11:35;18.15;;;9.18;;
17494;SDS011;8864;51.970;4.614;2024-03-07T05:14:02;17.58;;;9.02;;
17494;SDS011;8864;51.970;4.614;2024-03-07T05:16:30;16.60;;;9.57;;
17494;SDS011;8864;51.970;4.614;2024-03-07T05:18:58;20.80;;;9.45;;
17494;SDS011;8864;51.970;4.614;2024-03-07T05:21:25;16.83;;;9.00;;
17494;SDS011;8864;51.970;4.614;2024-03-07T05:24:05;16.40;;;8.57;;
17494;SDS011;8864;51.970;4.614;2024-03-07T05:26:35;16.83;;;8.93;;
17494;SDS011;8864;51.970;4.614;2024-03-07T05:29:06;20.45;;;9.38;;
17494;SDS011;8864;51.970;4.614;2024-03-07T05:31:34;18.17;;;9.77;;
17494;SDS011;8864;51.970;4.614;2024-03-07T05:34:01;18.25;;;9.20;;
17494;SDS011;8864;51.970;4.614;2024-03-07T05:36:30;17.52;;;9.20;;
17494;SDS011;8864;51.970;4.614;2024-03-07T05:38:57;17.95;;;9.40;;
17494;SDS011;8864;51.970;4.614;2024-03-07T05:41:26;19.58;;;9.38;;
17494;SDS011;8864;51.970;4.614;2024-03-07T05:43:56;18.42;;;8.95;;
17494;SDS011;8864;51.970;4.614;2024-03-07T05:46:23;19.67;;;9.65;;
17494;SDS011;8864;51.970;4.614;2024-03-07T05:48:50;17.67;;;9.27;;
17494;SDS011;8864;51.970;4.614;2024-03-07T05:51:21;20.60;;;9.70;;
17494;SDS011;8864;51.970;4.614;2024-03-07T05:53:49;14.52;;;8.73;;
17494;SDS011;8864;51.970;4.614;2024-03-07T05:56:16;20.30;;;9.82;;
17494;SDS011;8864;51.970;4.614;2024-03-07T05:58:43;16.35;;;9.32;;
17494;SDS011;8864;51.970;4.614;2024-03-07T06:01:12;17.92;;;8.90;;
17494;SDS011;8864;51.970;4.614;2024-03-07T06:03:39;16.92;;;9.77;;
17494;SDS011;8864;51.970;4.614;2024-03-07T06:06:06;20.75;;;9.60;;
17494;SDS011;8864;51.970;4.614;2024-03-07T06:08:36;16.83;;;8.95;;
17494;SDS011;8864;51.970;4.614;2024-03-07T06:11:07;16.05;;;9.30;;
17494;SDS011;8864;51.970;4.614;2024-03-07T06:13:35;17.20;;;9.77;;
17494;SDS011;8864;51.970;4.614;2024-03-07T06:16:02;19.48;;;9.48;;
17494;SDS011;8864;51.970;4.614;2024-03-07T06:18:34;15.70;;;9.23;;
17494;SDS011;8864;51.970;4.614;2024-03-07T06:21:01;17.25;;;9.20;;
17494;SDS011;8864;51.970;4.614;2024-03-07T06:23:30;16.83;;;9.27;;
17494;SDS011;8864;51.970;4.614;2024-03-07T06:25:57;17.05;;;9.25;;
17494;SDS011;8864;51.970;4.614;2024-03-07T06:28:25;15.93;;;8.95;;
17494;SDS011;8864;51.970;4.614;2024-03-07T06:30:54;17.20;;;8.68;;
17494;SDS011;8864;51.970;4.614;2024-03-07T06:33:21;20.92;;;9.93;;
17494;SDS011;8864;51.970;4.614;2024-03-07T06:35:49;18.60;;;9.30;;
17494;SDS011;8864;51.970;4.614;2024-03-07T06:38:16;17.33;;;9.43;;
17494;SDS011;8864;51.970;4.614;2024-03-07T06:40:43;19.15;;;9.30;;
17494;SDS011;8864;51.970;4.614;2024-03-07T06:43:11;17.33;;;8.80;;
17494;SDS011;8864;51.970;4.614;2024-03-07T06:45:38;16.83;;;9.05;;
17494;SDS011;8864;51.970;4.614;2024-03-07T06:48:07;18.20;;;8.95;;
17494;SDS011;8864;51.970;4.614;2024-03-07T06:50:35;17.00;;;9.73;;
17494;SDS011;8864;51.970;4.614;2024-03-07T06:53:03;17.40;;;9.25;;
17494;SDS011;8864;51.970;4.614;2024-03-07T06:55:32;17.33;;;9.60;;
17494;SDS011;8864;51.970;4.614;2024-03-07T06:58:00;18.98;;;9.05;;
17494;SDS011;8864;51.970;4.614;2024-03-07T07:00:29;23.05;;;9.30;;
17494;SDS011;8864;51.970;4.614;2024-03-07T07:03:00;17.13;;;9.02;;
17494;SDS011;8864;51.970;4.614;2024-03-07T07:05:30;18.45;;;8.80;;
17494;SDS011;8864;51.970;4.614;2024-03-07T07:07:58;19.88;;;8.20;;
17494;SDS011;8864;51.970;4.614;2024-03-07T07:10:27;16.15;;;8.35;;
17494;SDS011;8864;51.970;4.614;2024-03-07T07:12:54;14.27;;;8.32;;
17494;SDS011;8864;51.970;4.614;2024-03-07T07:15:22;18.38;;;8.50;;
17494;SDS011;8864;51.970;4.614;2024-03-07T07:17:49;14.25;;;8.30;;
17494;SDS011;8864;51.970;4.614;2024-03-07T07:20:16;17.63;;;8.45;;
17494;SDS011;8864;51.970;4.614;2024-03-07T07:22:45;16.13;;;8.73;;
17494;SDS011;8864;51.970;4.614;2024-03-07T07:25:13;16.48;;;9.13;;
17494;SDS011;8864;51.970;4.614;2024-03-07T07:27:43;17.95;;;8.25;;
17494;SDS011;8864;51.970;4.614;2024-03-07T07:30:11;18.67;;;9.32;;
17494;SDS011;8864;51.970;4.614;2024-03-07T07:32:39;16.15;;;8.75;;
17494;SDS011;8864;51.970;4.614;2024-03-07T07:35:08;14.07;;;8.20;;
17494;SDS011;8864;51.970;4.614;2024-03-07T07:37:37;18.08;;;8.32;;
17494;SDS011;8864;51.970;4.614;2024-03-07T07:40:05;16.83;;;8.77;;
17494;SDS011;8864;51.970;4.614;2024-03-07T07:42:35;18.48;;;8.82;;
17494;SDS011;8864;51.970;4.614;2024-03-07T07:45:06;17.90;;;9.15;;
17494;SDS011;8864;51.970;4.614;2024-03-07T07:47:36;15.80;;;8.38;;
17494;SDS011;8864;51.970;4.614;2024-03-07T07:50:06;19.95;;;9.30;;
17494;SDS011;8864;51.970;4.614;2024-03-07T07:52:39;17.27;;;8.60;;
17494;SDS011;8864;51.970;4.614;2024-03-07T07:55:07;16.55;;;8.50;;
17494;SDS011;8864;51.970;4.614;2024-03-07T07:57:40;14.52;;;7.97;;
17494;SDS011;8864;51.970;4.614;2024-03-07T08:00:12;51.85;;;11.18;;
17494;SDS011;8864;51.970;4.614;2024-03-07T08:02:50;70.25;;;14.20;;
17494;SDS011;8864;51.970;4.614;2024-03-07T08:05:18;55.60;;;12.38;;
17494;SDS011;8864;51.970;4.614;2024-03-07T08:07:48;51.78;;;13.15;;
17494;SDS011;8864;51.970;4.614;2024-03-07T08:10:16;50.10;;;12.77;;
17494;SDS011;8864;51.970;4.614;2024-03-07T08:12:44;66.32;;;14.40;;
17494;SDS011;8864;51.970;4.614;2024-03-07T08:15:12;47.15;;;13.02;;
17494;SDS011;8864;51.970;4.614;2024-03-07T08:17:40;56.50;;;12.80;;
17494;SDS011;8864;51.970;4.614;2024-03-07T08:20:10;48.25;;;12.63;;
17494;SDS011;8864;51.970;4.614;2024-03-07T08:22:38;41.20;;;11.75;;
17494;SDS011;8864;51.970;4.614;2024-03-07T08:25:07;52.58;;;12.30;;
17494;SDS011;8864;51.970;4.614;2024-03-07T08:27:36;47.90;;;12.27;;
17494;SDS011;8864;51.970;4.614;2024-03-07T08:30:04;39.28;;;12.00;;
17494;SDS011;8864;51.970;4.614;2024-03-07T08:32:34;36.50;;;11.25;;
17494;SDS011;8864;51.970;4.614;2024-03-07T08:35:02;42.95;;;11.35;;
17494;SDS011;8864;51.970;4.614;2024-03-07T08:37:32;35.45;;;11.10;;
17494;SDS011;8864;51.970;4.614;2024-03-07T08:40:00;31.90;;;10.13;;
17494;SDS011;8864;51.970;4.614;2024-03-07T08:42:31;37.08;;;10.02;;
17494;SDS011;8864;51.970;4.614;2024-03-07T08:44:59;29.77;;;10.05;;
17494;SDS011;8864;51.970;4.614;2024-03-07T08:47:28;28.45;;;9.93;;
17494;SDS011;8864;51.970;4.614;2024-03-07T08:49:57;21.10;;;9.30;;
17494;SDS011;8864;51.970;4.614;2024-03-07T08:52:24;25.77;;;9.82;;
17494;SDS011;8864;51.970;4.614;2024-03-07T08:54:53;23.20;;;9.20;;
17494;SDS011;8864;51.970;4.614;2024-03-07T08:57:20;34.65;;;9.45;;
17494;SDS011;8864;51.970;4.614;2024-03-07T08:59:47;18.10;;;8.27;;
17494;SDS011;8864;51.970;4.614;2024-03-07T09:02:15;26.42;;;9.43;;
17494;SDS011;8864;51.970;4.614;2024-03-07T09:04:42;17.48;;;8.23;;
17494;SDS011;8864;51.970;4.614;2024-03-07T09:07:11;21.50;;;8.15;;
17494;SDS011;8864;51.970;4.614;2024-03-07T09:09:39;19.88;;;7.88;;
17494;SDS011;8864;51.970;4.614;2024-03-07T09:12:08;21.05;;;8.20;;
17494;SDS011;8864;51.970;4.614;2024-03-07T09:14:36;23.73;;;8.43;;
17494;SDS011;8864;51.970;4.614;2024-03-07T09:17:03;17.95;;;6.93;;
17494;SDS011;8864;51.970;4.614;2024-03-07T09:19:30;17.95;;;7.47;;
17494;SDS011;8864;51.970;4.614;2024-03-07T09:21:57;18.15;;;6.93;;
17494;SDS011;8864;51.970;4.614;2024-03-07T09:24:26;19.80;;;7.75;;
17494;SDS011;8864;51.970;4.614;2024-03-07T09:26:53;14.52;;;7.22;;
17494;SDS011;8864;51.970;4.614;2024-03-07T09:29:21;14.85;;;7.57;;
17494;SDS011;8864;51.970;4.614;2024-03-07T09:31:49;15.52;;;6.78;;
17494;SDS011;8864;51.970;4.614;2024-03-07T09:34:18;14.80;;;7.13;;
17494;SDS011;8864;51.970;4.614;2024-03-07T09:36:46;16.17;;;6.90;;
17494;SDS011;8864;51.970;4.614;2024-03-07T09:39:14;13.52;;;6.65;;
17494;SDS011;8864;51.970;4.614;2024-03-07T09:41:42;17.25;;;6.63;;
17494;SDS011;8864;51.970;4.614;2024-03-07T09:44:09;14.52;;;6.32;;
17494;SDS011;8864;51.970;4.614;2024-03-07T09:46:38;17.00;;;6.47;;
17494;SDS011;8864;51.970;4.614;2024-03-07T09:49:07;17.85;;;7.07;;
17494;SDS011;8864;51.970;4.614;2024-03-07T09:51:38;15.30;;;7.28;;
17494;SDS011;8864;51.970;4.614;2024-03-07T09:54:07;10.80;;;5.90;;
17494;SDS011;8864;51.970;4.614;2024-03-07T09:56:35;11.38;;;6.32;;
17494;SDS011;8864;51.970;4.614;2024-03-07T09:59:04;10.60;;;5.82;;
17494;SDS011;8864;51.970;4.614;2024-03-07T10:01:35;11.13;;;6.00;;
17494;SDS011;8864;51.970;4.614;2024-03-07T10:04:04;13.93;;;6.07;;
17494;SDS011;8864;51.970;4.614;2024-03-07T10:06:36;10.00;;;5.43;;
17494;SDS011;8864;51.970;4.614;2024-03-07T10:09:04;11.38;;;5.95;;
17494;SDS011;8864;51.970;4.614;2024-03-07T10:11:33;11.82;;;5.50;;
17494;SDS011;8864;51.970;4.614;2024-03-07T10:14:00;11.68;;;5.63;;
17494;SDS011;8864;51.970;4.614;2024-03-07T10:16:31;12.30;;;5.45;;
17494;SDS011;8864;51.970;4.614;2024-03-07T10:18:58;9.70;;;5.55;;
17494;SDS011;8864;51.970;4.614;2024-03-07T10:21:30;10.32;;;5.35;;
17494;SDS011;8864;51.970;4.614;2024-03-07T10:24:08;7.22;;;4.40;;
17494;SDS011;8864;51.970;4.614;2024-03-07T10:26:37;10.45;;;4.53;;
17494;SDS011;8864;51.970;4.614;2024-03-07T10:29:05;9.57;;;4.82;;
17494;SDS011;8864;51.970;4.614;2024-03-07T10:31:34;6.72;;;4.28;;
17494;SDS011;8864;51.970;4.614;2024-03-07T10:34:03;7.13;;;4.22;;
17494;SDS011;8864;51.970;4.614;2024-03-07T10:36:31;12.27;;;5.05;;
17494;SDS011;8864;51.970;4.614;2024-03-07T10:38:58;11.55;;;4.57;;
17494;SDS011;8864;51.970;4.614;2024-03-07T10:41:37;9.02;;;4.43;;
17494;SDS011;8864;51.970;4.614;2024-03-07T10:44:11;9.18;;;4.20;;
17494;SDS011;8864;51.970;4.614;2024-03-07T10:46:48;7.55;;;4.40;;
17494;SDS011;8864;51.970;4.614;2024-03-07T10:49:19;12.80;;;4.20;;
17494;SDS011;8864;51.970;4.614;2024-03-07T10:51:52;7.90;;;4.07;;
17494;SDS011;8864;51.970;4.614;2024-03-07T10:54:29;6.93;;;3.75;;
17494;SDS011;8864;51.970;4.614;2024-03-07T10:57:09;6.18;;;3.55;;
17494;SDS011;8864;51.970;4.614;2024-03-07T10:59:49;6.13;;;3.72;;
17494;SDS011;8864;51.970;4.614;2024-03-07T11:02:27;7.13;;;3.88;;
17494;SDS011;8864;51.970;4.614;2024-03-07T11:05:00;8.48;;;3.70;;
17494;SDS011;8864;51.970;4.614;2024-03-07T11:07:27;10.43;;;4.45;;
17494;SDS011;8864;51.970;4.614;2024-03-07T11:09:55;6.70;;;3.65;;
17494;SDS011;8864;51.970;4.614;2024-03-07T11:12:24;8.00;;;4.00;;
17494;SDS011;8864;51.970;4.614;2024-03-07T11:14:53;6.45;;;3.47;;
17494;SDS011;8864;51.970;4.614;2024-03-07T11:17:23;7.53;;;3.88;;
17494;SDS011;8864;51.970;4.614;2024-03-07T11:19:51;7.10;;;3.72;;
17494;SDS011;8864;51.970;4.614;2024-03-07T11:22:28;8.98;;;3.67;;
17494;SDS011;8864;51.970;4.614;2024-03-07T11:25:00;6.05;;;3.90;;
17494;SDS011;8864;51.970;4.614;2024-03-07T11:27:31;7.40;;;4.22;;
17494;SDS011;8864;51.970;4.614;2024-03-07T11:30:04;7.18;;;3.85;;
17494;SDS011;8864;51.970;4.614;2024-03-07T11:32:35;7.13;;;3.85;;
17494;SDS011;8864;51.970;4.614;2024-03-07T11:35:04;7.68;;;4.13;;
17494;SDS011;8864;51.970;4.614;2024-03-07T11:37:40;6.22;;;3.45;;
17494;SDS011;8864;51.970;4.614;2024-03-07T11:40:11;7.32;;;3.15;;
17494;SDS011;8864;51.970;4.614;2024-03-07T11:42:45;6.72;;;4.50;;
17494;SDS011;8864;51.970;4.614;2024-03-07T11:45:14;6.28;;;3.47;;
17494;SDS011;8864;51.970;4.614;2024-03-07T11:47:51;7.05;;;4.00;;
17494;SDS011;8864;51.970;4.614;2024-03-07T11:50:25;6.82;;;4.18;;
17494;SDS011;8864;51.970;4.614;2024-03-07T11:52:52;5.85;;;3.47;;
17494;SDS011;8864;51.970;4.614;2024-03-07T11:55:20;5.88;;;3.80;;
17494;SDS011;8864;51.970;4.614;2024-03-07T11:57:47;5.63;;;3.80;;
17494;SDS011;8864;51.970;4.614;2024-03-07T12:00:17;7.20;;;4.03;;
17494;SDS011;8864;51.970;4.614;2024-03-07T12:02:53;6.10;;;3.80;;
17494;SDS011;8864;51.970;4.614;2024-03-07T12:05:20;6.80;;;3.78;;
17494;SDS011;8864;51.970;4.614;2024-03-07T12:07:48;5.50;;;3.83;;
17494;SDS011;8864;51.970;4.614;2024-03-07T12:10:15;6.63;;;3.92;;
17494;SDS011;8864;51.970;4.614;2024-03-07T12:12:49;8.50;;;3.97;;
17494;SDS011;8864;51.970;4.614;2024-03-07T12:15:17;11.80;;;4.45;;
17494;SDS011;8864;51.970;4.614;2024-03-07T12:17:44;10.95;;;4.03;;
17494;SDS011;8864;51.970;4.614;2024-03-07T12:20:16;11.55;;;4.50;;
17494;SDS011;8864;51.970;4.614;2024-03-07T12:22:54;9.50;;;4.15;;
17494;SDS011;8864;51.970;4.614;2024-03-07T12:25:22;11.32;;;4.13;;
17494;SDS011;8864;51.970;4.614;2024-03-07T12:28:03;9.25;;;4.25;;
17494;SDS011;8864;51.970;4.614;2024-03-07T12:30:32;11.63;;;4.70;;
17494;SDS011;8864;51.970;4.614;2024-03-07T12:33:00;11.32;;;4.72;;
17494;SDS011;8864;51.970;4.614;2024-03-07T12:35:31;9.77;;;3.88;;
17494;SDS011;8864;51.970;4.614;2024-03-07T12:37:58;7.65;;;4.38;;
17494;SDS011;8864;51.970;4.614;2024-03-07T12:40:28;7.22;;;3.88;;
17494;SDS011;8864;51.970;4.614;2024-03-07T12:42:59;7.28;;;3.92;;
17494;SDS011;8864;51.970;4.614;2024-03-07T12:45:28;6.22;;;3.88;;
17494;SDS011;8864;51.970;4.614;2024-03-07T12:47:58;7.18;;;3.67;;
17494;SDS011;8864;51.970;4.614;2024-03-07T12:50:29;7.65;;;4.05;;
17494;SDS011;8864;51.970;4.614;2024-03-07T12:53:00;11.30;;;4.25;;
17494;SDS011;8864;51.970;4.614;2024-03-07T12:55:30;6.82;;;4.15;;
17494;SDS011;8864;51.970;4.614;2024-03-07T12:57:58;8.80;;;3.75;;
17494;SDS011;8864;51.970;4.614;2024-03-07T13:00:25;5.43;;;3.33;;
17494;SDS011;8864;51.970;4.614;2024-03-07T13:02:55;6.40;;;3.55;;
17494;SDS011;8864;51.970;4.614;2024-03-07T13:05:22;7.65;;;3.92;;
17494;SDS011;8864;51.970;4.614;2024-03-07T13:07:52;6.72;;;3.83;;
17494;SDS011;8864;51.970;4.614;2024-03-07T13:10:20;5.40;;;3.63;;
17494;SDS011;8864;51.970;4.614;2024-03-07T13:12:48;12.48;;;3.88;;
17494;SDS011;8864;51.970;4.614;2024-03-07T13:15:17;7.15;;;3.75;;
17494;SDS011;8864;51.970;4.614;2024-03-07T13:17:46;8.88;;;3.95;;
17494;SDS011;8864;51.970;4.614;2024-03-07T13:20:14;8.40;;;3.95;;
17494;SDS011;8864;51.970;4.614;2024-03-07T13:22:47;6.70;;;3.80;;
17494;SDS011;8864;51.970;4.614;2024-03-07T13:25:16;6.07;;;3.42;;
17494;SDS011;8864;51.970;4.614;2024-03-07T13:27:51;7.47;;;3.63;;
17494;SDS011;8864;51.970;4.614;2024-03-07T13:30:23;5.32;;;3.65;;
17494;SDS011;8864;51.970;4.614;2024-03-07T13:32:52;6.28;;;3.60;;
17494;SDS011;8864;51.970;4.614;2024-03-07T13:35:21;5.90;;;3.60;;
17494;SDS011;8864;51.970;4.614;2024-03-07T13:37:48;5.05;;;3.17;;
17494;SDS011;8864;51.970;4.614;2024-03-07T13:40:17;4.97;;;3.22;;
17494;SDS011;8864;51.970;4.614;2024-03-07T13:42:51;7.72;;;3.47;;
17494;SDS011;8864;51.970;4.614;2024-03-07T13:45:20;8.57;;;3.33;;
17494;SDS011;8864;51.970;4.614;2024-03-07T13:47:48;8.35;;;3.08;;
17494;SDS011;8864;51.970;4.614;2024-03-07T13:50:18;6.15;;;3.45;;
17494;SDS011;8864;51.970;4.614;2024-03-07T13:52:47;4.53;;;3.10;;
17494;SDS011;8864;51.970;4.614;2024-03-07T13:55:41;8.70;;;3.75;;
17494;SDS011;8864;51.970;4.614;2024-03-07T13:58:19;4.18;;;3.20;;
17494;SDS011;8864;51.970;4.614;2024-03-07T14:01:16;6.30;;;3.47;;
17494;SDS011;8864;51.970;4.614;2024-03-07T14:03:59;5.90;;;3.10;;
17494;SDS011;8864;51.970;4.614;2024-03-07T14:06:56;5.18;;;3.30;;
17494;SDS011;8864;51.970;4.614;2024-03-07T14:09:53;4.68;;;3.20;;
17494;SDS011;8864;51.970;4.614;2024-03-07T14:12:49;6.55;;;3.13;;
17494;SDS011;8864;51.970;4.614;2024-03-07T14:18:50;4.65;;;3.25;;
17494;SDS011;8864;51.970;4.614;2024-03-07T14:21:53;4.32;;;2.67;;
17494;SDS011;8864;51.970;4.614;2024-03-07T14:24:50;4.53;;;3.10;;
17494;SDS011;8864;51.970;4.614;2024-03-07T14:27:31;4.72;;;3.25;;
17494;SDS011;8864;51.970;4.614;2024-03-07T14:32:53;4.68;;;2.95;;
17494;SDS011;8864;51.970;4.614;2024-03-07T14:35:30;5.70;;;3.50;;
17494;SDS011;8864;51.970;4.614;2024-03-07T14:38:05;6.93;;;3.38;;
17494;SDS011;8864;51.970;4.614;2024-03-07T14:40:48;4.28;;;2.95;;
17494;SDS011;8864;51.970;4.614;2024-03-07T14:43:18;5.05;;;3.20;;
17494;SDS011;8864;51.970;4.614;2024-03-07T14:45:48;5.68;;;3.47;;
17494;SDS011;8864;51.970;4.614;2024-03-07T14:48:20;4.25;;;2.60;;
17494;SDS011;8864;51.970;4.614;2024-03-07T14:50:47;9.98;;;3.47;;
17494;SDS011;8864;51.970;4.614;2024-03-07T14:53:14;9.10;;;3.92;;
17494;SDS011;8864;51.970;4.614;2024-03-07T14:55:43;8.85;;;3.78;;
17494;SDS011;8864;51.970;4.614;2024-03-07T14:58:10;7.88;;;3.53;;
17494;SDS011;8864;51.970;4.614;2024-03-07T15:00:39;9.98;;;3.45;;
17494;SDS011;8864;51.970;4.614;2024-03-07T15:03:09;5.45;;;3.45;;
17494;SDS011;8864;51.970;4.614;2024-03-07T15:05:39;6.18;;;3.30;;
17494;SDS011;8864;51.970;4.614;2024-03-07T15:08:07;9.07;;;3.58;;
17494;SDS011;8864;51.970;4.614;2024-03-07T15:10:37;7.97;;;3.42;;